Main page
METAR-TAF:

METAR-TAF

Airports :

Kokomo Municipal Airport

Kokomo, Indiana, United States

latitude: 40-32N, longitude: 086-04W, elevation: 830 ft

Current weather observation

The report was made 44 minutes ago, at 19:56 UTC
Wind 8 mph from the South
Temperature 72°F
Humidity 100%
Pressure 30.03 in. Hg
Visibility: 10 miles
Clear sky

METAR: KOKK 141956Z AUTO 18007KT 10SM CLR 22/22 A3003 RMK AO2 LTG DSNT SE RAE29 SLP165 T02170217 PNO $

Time: 16:40 (20:40 UTC)


TAF: missing

Weather observations and forecasts of more than 4000 airports (METAR and TAF reports).

The available stations are represented by yellow and red dots on the map.

Hover mouse over dot to see the name of the station.

Then click to see weather observations and forecasts.

To change the map : click on the green buttons with a black cross to zoom in, on the green button with a dash to zoom out, or on the green arrows for adjacent maps.


METAR-TAF: